sensor_id;sensor_type;location;lat;lon;timestamp;P1;durP1;ratioP1;P2;durP2;ratioP2
1412;SDS011;701;52.526;13.408;2023-08-06T00:00:22;13.43;;;5.90;;
1412;SDS011;701;52.526;13.408;2023-08-06T00:02:48;11.43;;;5.75;;
1412;SDS011;701;52.526;13.408;2023-08-06T00:05:14;10.87;;;5.83;;
1412;SDS011;701;52.526;13.408;2023-08-06T00:07:46;13.25;;;6.60;;
1412;SDS011;701;52.526;13.408;2023-08-06T00:10:15;12.07;;;6.30;;
1412;SDS011;701;52.526;13.408;2023-08-06T00:12:42;12.55;;;6.28;;
1412;SDS011;701;52.526;13.408;2023-08-06T00:15:08;10.77;;;5.93;;
1412;SDS011;701;52.526;13.408;2023-08-06T00:17:34;11.77;;;6.23;;
1412;SDS011;701;52.526;13.408;2023-08-06T00:20:00;10.73;;;6.35;;
1412;SDS011;701;52.526;13.408;2023-08-06T00:22:34;12.23;;;5.97;;
1412;SDS011;701;52.526;13.408;2023-08-06T00:25:02;11.27;;;6.18;;
1412;SDS011;701;52.526;13.408;2023-08-06T00:27:29;10.43;;;5.90;;
1412;SDS011;701;52.526;13.408;2023-08-06T00:29:55;9.80;;;5.70;;
1412;SDS011;701;52.526;13.408;2023-08-06T00:32:21;10.40;;;6.10;;
1412;SDS011;701;52.526;13.408;2023-08-06T00:34:47;10.85;;;5.85;;
1412;SDS011;701;52.526;13.408;2023-08-06T00:37:15;10.13;;;6.03;;
1412;SDS011;701;52.526;13.408;2023-08-06T00:39:44;10.50;;;6.07;;
1412;SDS011;701;52.526;13.408;2023-08-06T00:42:10;10.18;;;5.80;;
1412;SDS011;701;52.526;13.408;2023-08-06T00:44:37;10.75;;;5.97;;
1412;SDS011;701;52.526;13.408;2023-08-06T00:47:04;13.40;;;5.88;;
1412;SDS011;701;52.526;13.408;2023-08-06T00:49:30;10.40;;;5.70;;
1412;SDS011;701;52.526;13.408;2023-08-06T00:51:56;10.57;;;5.97;;
1412;SDS011;701;52.526;13.408;2023-08-06T00:54:23;10.18;;;5.78;;
1412;SDS011;701;52.526;13.408;2023-08-06T00:56:50;9.00;;;5.57;;
1412;SDS011;701;52.526;13.408;2023-08-06T00:59:15;9.40;;;5.70;;
1412;SDS011;701;52.526;13.408;2023-08-06T01:01:41;8.93;;;5.40;;
1412;SDS011;701;52.526;13.408;2023-08-06T01:04:08;10.68;;;6.22;;
1412;SDS011;701;52.526;13.408;2023-08-06T01:09:21;9.60;;;5.80;;
1412;SDS011;701;52.526;13.408;2023-08-06T01:15:11;10.60;;;5.50;;
1412;SDS011;701;52.526;13.408;2023-08-06T01:17:45;9.85;;;5.82;;
1412;SDS011;701;52.526;13.408;2023-08-06T01:20:11;10.70;;;6.10;;
1412;SDS011;701;52.526;13.408;2023-08-06T01:22:37;10.07;;;5.93;;
1412;SDS011;701;52.526;13.408;2023-08-06T01:25:02;11.80;;;5.80;;
1412;SDS011;701;52.526;13.408;2023-08-06T01:30:13;10.10;;;5.50;;
1412;SDS011;701;52.526;13.408;2023-08-06T01:32:43;9.93;;;5.68;;
1412;SDS011;701;52.526;13.408;2023-08-06T01:35:14;10.40;;;5.72;;
1412;SDS011;701;52.526;13.408;2023-08-06T01:37:42;9.30;;;5.95;;
1412;SDS011;701;52.526;13.408;2023-08-06T01:40:12;10.43;;;5.60;;
1412;SDS011;701;52.526;13.408;2023-08-06T01:42:39;8.88;;;5.53;;
1412;SDS011;701;52.526;13.408;2023-08-06T01:45:05;9.57;;;5.40;;
1412;SDS011;701;52.526;13.408;2023-08-06T01:47:32;9.88;;;5.60;;
1412;SDS011;701;52.526;13.408;2023-08-06T01:49:58;10.03;;;5.30;;
1412;SDS011;701;52.526;13.408;2023-08-06T01:52:24;9.77;;;5.97;;
1412;SDS011;701;52.526;13.408;2023-08-06T01:54:50;8.52;;;5.20;;
1412;SDS011;701;52.526;13.408;2023-08-06T01:57:15;9.90;;;5.37;;
1412;SDS011;701;52.526;13.408;2023-08-06T01:59:41;9.20;;;5.28;;
1412;SDS011;701;52.526;13.408;2023-08-06T02:02:07;10.30;;;5.47;;
1412;SDS011;701;52.526;13.408;2023-08-06T02:04:32;10.73;;;5.68;;
1412;SDS011;701;52.526;13.408;2023-08-06T02:06:58;9.30;;;5.27;;
1412;SDS011;701;52.526;13.408;2023-08-06T02:09:24;10.55;;;5.60;;
1412;SDS011;701;52.526;13.408;2023-08-06T02:11:51;10.20;;;5.50;;
1412;SDS011;701;52.526;13.408;2023-08-06T02:14:17;9.33;;;5.60;;
1412;SDS011;701;52.526;13.408;2023-08-06T02:16:42;10.02;;;5.65;;
1412;SDS011;701;52.526;13.408;2023-08-06T02:19:08;10.97;;;6.07;;
1412;SDS011;701;52.526;13.408;2023-08-06T02:21:34;11.00;;;6.13;;
1412;SDS011;701;52.526;13.408;2023-08-06T02:24:00;11.33;;;6.50;;
1412;SDS011;701;52.526;13.408;2023-08-06T02:26:26;9.35;;;5.82;;
1412;SDS011;701;52.526;13.408;2023-08-06T02:28:54;12.32;;;6.60;;
1412;SDS011;701;52.526;13.408;2023-08-06T02:31:20;10.60;;;6.25;;
1412;SDS011;701;52.526;13.408;2023-08-06T02:33:46;12.67;;;6.80;;
1412;SDS011;701;52.526;13.408;2023-08-06T02:36:12;10.75;;;6.22;;
1412;SDS011;701;52.526;13.408;2023-08-06T02:38:37;13.20;;;6.37;;
1412;SDS011;701;52.526;13.408;2023-08-06T02:41:03;10.25;;;6.40;;
1412;SDS011;701;52.526;13.408;2023-08-06T02:43:30;9.40;;;6.45;;
1412;SDS011;701;52.526;13.408;2023-08-06T02:45:59;12.63;;;7.03;;
1412;SDS011;701;52.526;13.408;2023-08-06T02:48:25;11.30;;;6.72;;
1412;SDS011;701;52.526;13.408;2023-08-06T02:50:52;12.15;;;6.72;;
1412;SDS011;701;52.526;13.408;2023-08-06T02:53:18;10.77;;;6.78;;
1412;SDS011;701;52.526;13.408;2023-08-06T02:55:46;12.87;;;7.13;;
1412;SDS011;701;52.526;13.408;2023-08-06T02:58:15;11.77;;;6.47;;
1412;SDS011;701;52.526;13.408;2023-08-06T03:01:08;11.73;;;6.75;;
1412;SDS011;701;52.526;13.408;2023-08-06T03:03:42;10.77;;;6.03;;
1412;SDS011;701;52.526;13.408;2023-08-06T03:06:09;8.80;;;5.25;;
1412;SDS011;701;52.526;13.408;2023-08-06T03:08:42;11.20;;;6.10;;
1412;SDS011;701;52.526;13.408;2023-08-06T03:11:07;10.13;;;5.95;;
1412;SDS011;701;52.526;13.408;2023-08-06T03:13:33;10.55;;;5.78;;
1412;SDS011;701;52.526;13.408;2023-08-06T03:16:00;9.85;;;5.68;;
1412;SDS011;701;52.526;13.408;2023-08-06T03:18:28;10.37;;;5.50;;
1412;SDS011;701;52.526;13.408;2023-08-06T03:20:56;9.90;;;5.35;;
1412;SDS011;701;52.526;13.408;2023-08-06T03:23:23;10.85;;;5.38;;
1412;SDS011;701;52.526;13.408;2023-08-06T03:25:49;9.23;;;5.18;;
1412;SDS011;701;52.526;13.408;2023-08-06T03:28:16;8.43;;;4.93;;
1412;SDS011;701;52.526;13.408;2023-08-06T03:30:42;9.45;;;5.15;;
1412;SDS011;701;52.526;13.408;2023-08-06T03:33:10;10.32;;;5.30;;
1412;SDS011;701;52.526;13.408;2023-08-06T03:35:36;8.70;;;5.07;;
1412;SDS011;701;52.526;13.408;2023-08-06T03:38:01;9.90;;;5.40;;
1412;SDS011;701;52.526;13.408;2023-08-06T03:40:28;11.70;;;5.75;;
1412;SDS011;701;52.526;13.408;2023-08-06T03:42:55;9.43;;;5.65;;
1412;SDS011;701;52.526;13.408;2023-08-06T03:45:21;9.13;;;5.77;;
1412;SDS011;701;52.526;13.408;2023-08-06T03:47:47;9.65;;;5.68;;
1412;SDS011;701;52.526;13.408;2023-08-06T03:50:14;9.27;;;5.38;;
1412;SDS011;701;52.526;13.408;2023-08-06T03:52:39;11.30;;;5.63;;
1412;SDS011;701;52.526;13.408;2023-08-06T03:55:05;9.63;;;5.60;;
1412;SDS011;701;52.526;13.408;2023-08-06T03:57:31;9.35;;;5.55;;
1412;SDS011;701;52.526;13.408;2023-08-06T03:59:58;9.95;;;5.60;;
1412;SDS011;701;52.526;13.408;2023-08-06T04:02:25;11.02;;;6.03;;
1412;SDS011;701;52.526;13.408;2023-08-06T04:04:52;9.50;;;6.00;;
1412;SDS011;701;52.526;13.408;2023-08-06T04:07:18;11.50;;;5.80;;
1412;SDS011;701;52.526;13.408;2023-08-06T04:09:54;10.48;;;6.30;;
1412;SDS011;701;52.526;13.408;2023-08-06T04:12:24;9.97;;;5.37;;
1412;SDS011;701;52.526;13.408;2023-08-06T04:14:50;10.45;;;6.00;;
1412;SDS011;701;52.526;13.408;2023-08-06T04:17:20;12.38;;;6.00;;
1412;SDS011;701;52.526;13.408;2023-08-06T04:19:55;11.00;;;6.35;;
1412;SDS011;701;52.526;13.408;2023-08-06T04:22:23;11.13;;;6.43;;
1412;SDS011;701;52.526;13.408;2023-08-06T04:24:50;12.03;;;6.37;;
1412;SDS011;701;52.526;13.408;2023-08-06T04:27:16;10.07;;;5.30;;
1412;SDS011;701;52.526;13.408;2023-08-06T04:29:43;11.18;;;5.72;;
1412;SDS011;701;52.526;13.408;2023-08-06T04:32:09;11.70;;;5.83;;
1412;SDS011;701;52.526;13.408;2023-08-06T04:34:38;9.60;;;5.47;;
1412;SDS011;701;52.526;13.408;2023-08-06T04:37:04;9.33;;;5.80;;
1412;SDS011;701;52.526;13.408;2023-08-06T04:39:30;9.27;;;5.23;;
1412;SDS011;701;52.526;13.408;2023-08-06T04:41:56;11.82;;;5.60;;
1412;SDS011;701;52.526;13.408;2023-08-06T04:44:26;8.65;;;5.28;;
1412;SDS011;701;52.526;13.408;2023-08-06T04:46:52;9.63;;;5.20;;
1412;SDS011;701;52.526;13.408;2023-08-06T04:49:19;10.45;;;5.50;;
1412;SDS011;701;52.526;13.408;2023-08-06T04:51:46;8.73;;;5.07;;
1412;SDS011;701;52.526;13.408;2023-08-06T04:54:11;9.17;;;5.10;;
1412;SDS011;701;52.526;13.408;2023-08-06T04:56:37;9.50;;;4.60;;
1412;SDS011;701;52.526;13.408;2023-08-06T04:59:03;8.38;;;4.60;;
1412;SDS011;701;52.526;13.408;2023-08-06T05:01:29;8.23;;;4.50;;
1412;SDS011;701;52.526;13.408;2023-08-06T05:03:55;10.73;;;4.80;;
1412;SDS011;701;52.526;13.408;2023-08-06T05:06:20;8.90;;;4.80;;
1412;SDS011;701;52.526;13.408;2023-08-06T05:08:46;7.90;;;4.97;;
1412;SDS011;701;52.526;13.408;2023-08-06T05:11:12;8.67;;;4.90;;
1412;SDS011;701;52.526;13.408;2023-08-06T05:13:37;9.93;;;5.55;;
1412;SDS011;701;52.526;13.408;2023-08-06T05:16:03;7.70;;;4.30;;
1412;SDS011;701;52.526;13.408;2023-08-06T05:18:29;8.43;;;4.63;;
1412;SDS011;701;52.526;13.408;2023-08-06T05:20:55;7.93;;;4.93;;
1412;SDS011;701;52.526;13.408;2023-08-06T05:23:21;8.68;;;4.80;;
1412;SDS011;701;52.526;13.408;2023-08-06T05:25:47;8.40;;;4.43;;
1412;SDS011;701;52.526;13.408;2023-08-06T05:28:12;7.57;;;3.92;;
1412;SDS011;701;52.526;13.408;2023-08-06T05:30:39;7.80;;;4.23;;
1412;SDS011;701;52.526;13.408;2023-08-06T05:33:05;9.00;;;4.40;;
1412;SDS011;701;52.526;13.408;2023-08-06T05:35:31;8.70;;;4.30;;
1412;SDS011;701;52.526;13.408;2023-08-06T05:37:57;10.67;;;4.40;;
1412;SDS011;701;52.526;13.408;2023-08-06T05:40:23;8.63;;;4.10;;
1412;SDS011;701;52.526;13.408;2023-08-06T05:42:50;8.47;;;4.13;;
1412;SDS011;701;52.526;13.408;2023-08-06T05:45:19;6.82;;;3.80;;
1412;SDS011;701;52.526;13.408;2023-08-06T05:47:45;7.43;;;3.97;;
1412;SDS011;701;52.526;13.408;2023-08-06T05:50:12;7.10;;;3.90;;
1412;SDS011;701;52.526;13.408;2023-08-06T05:52:38;7.77;;;3.93;;
1412;SDS011;701;52.526;13.408;2023-08-06T05:55:04;7.95;;;4.40;;
1412;SDS011;701;52.526;13.408;2023-08-06T05:57:30;7.45;;;4.30;;
1412;SDS011;701;52.526;13.408;2023-08-06T05:59:56;7.60;;;4.30;;
1412;SDS011;701;52.526;13.408;2023-08-06T06:02:21;7.80;;;4.10;;
1412;SDS011;701;52.526;13.408;2023-08-06T06:04:47;9.55;;;4.72;;
1412;SDS011;701;52.526;13.408;2023-08-06T06:07:13;8.02;;;4.47;;
1412;SDS011;701;52.526;13.408;2023-08-06T06:09:39;8.33;;;3.97;;
1412;SDS011;701;52.526;13.408;2023-08-06T06:12:05;8.25;;;4.32;;
1412;SDS011;701;52.526;13.408;2023-08-06T06:14:31;7.80;;;3.97;;
1412;SDS011;701;52.526;13.408;2023-08-06T06:16:58;10.32;;;4.38;;
1412;SDS011;701;52.526;13.408;2023-08-06T06:19:25;10.00;;;5.07;;
1412;SDS011;701;52.526;13.408;2023-08-06T06:21:50;10.30;;;5.10;;
1412;SDS011;701;52.526;13.408;2023-08-06T06:24:17;10.60;;;5.10;;
1412;SDS011;701;52.526;13.408;2023-08-06T06:26:42;9.60;;;5.47;;
1412;SDS011;701;52.526;13.408;2023-08-06T06:29:08;9.90;;;4.93;;
1412;SDS011;701;52.526;13.408;2023-08-06T06:31:34;7.33;;;4.47;;
1412;SDS011;701;52.526;13.408;2023-08-06T06:33:59;9.93;;;5.20;;
1412;SDS011;701;52.526;13.408;2023-08-06T06:36:26;7.70;;;4.55;;
1412;SDS011;701;52.526;13.408;2023-08-06T06:38:51;8.10;;;4.27;;
1412;SDS011;701;52.526;13.408;2023-08-06T06:41:17;9.25;;;4.43;;
1412;SDS011;701;52.526;13.408;2023-08-06T06:43:43;7.90;;;4.20;;
1412;SDS011;701;52.526;13.408;2023-08-06T06:46:09;9.13;;;4.55;;
1412;SDS011;701;52.526;13.408;2023-08-06T06:48:35;8.55;;;4.00;;
1412;SDS011;701;52.526;13.408;2023-08-06T06:51:01;7.53;;;4.10;;
1412;SDS011;701;52.526;13.408;2023-08-06T06:53:26;7.30;;;3.88;;
1412;SDS011;701;52.526;13.408;2023-08-06T06:55:53;8.63;;;3.92;;
1412;SDS011;701;52.526;13.408;2023-08-06T06:58:37;10.57;;;3.77;;
1412;SDS011;701;52.526;13.408;2023-08-06T07:01:04;8.00;;;3.67;;
1412;SDS011;701;52.526;13.408;2023-08-06T07:03:30;7.68;;;4.20;;
1412;SDS011;701;52.526;13.408;2023-08-06T07:05:59;8.17;;;4.53;;
1412;SDS011;701;52.526;13.408;2023-08-06T07:08:25;9.32;;;4.05;;
1412;SDS011;701;52.526;13.408;2023-08-06T07:10:51;7.20;;;4.10;;
1412;SDS011;701;52.526;13.408;2023-08-06T07:13:26;8.93;;;5.00;;
1412;SDS011;701;52.526;13.408;2023-08-06T07:15:52;8.30;;;4.20;;
1412;SDS011;701;52.526;13.408;2023-08-06T07:18:19;8.80;;;4.97;;
1412;SDS011;701;52.526;13.408;2023-08-06T07:20:52;8.32;;;5.38;;
1412;SDS011;701;52.526;13.408;2023-08-06T07:23:22;9.40;;;4.63;;
1412;SDS011;701;52.526;13.408;2023-08-06T07:25:49;8.30;;;5.00;;
1412;SDS011;701;52.526;13.408;2023-08-06T07:28:15;8.60;;;5.13;;
1412;SDS011;701;52.526;13.408;2023-08-06T07:30:41;8.18;;;4.78;;
1412;SDS011;701;52.526;13.408;2023-08-06T07:33:08;9.25;;;5.07;;
1412;SDS011;701;52.526;13.408;2023-08-06T07:35:34;9.63;;;4.50;;
1412;SDS011;701;52.526;13.408;2023-08-06T07:38:00;10.38;;;5.63;;
1412;SDS011;701;52.526;13.408;2023-08-06T07:40:27;8.00;;;4.95;;
1412;SDS011;701;52.526;13.408;2023-08-06T07:42:52;7.97;;;4.75;;
1412;SDS011;701;52.526;13.408;2023-08-06T07:45:18;7.90;;;4.67;;
1412;SDS011;701;52.526;13.408;2023-08-06T07:47:44;8.20;;;4.40;;
1412;SDS011;701;52.526;13.408;2023-08-06T07:50:10;7.90;;;4.67;;
1412;SDS011;701;52.526;13.408;2023-08-06T07:52:36;8.37;;;4.70;;
1412;SDS011;701;52.526;13.408;2023-08-06T07:55:02;8.32;;;4.22;;
1412;SDS011;701;52.526;13.408;2023-08-06T07:57:30;8.37;;;5.00;;
1412;SDS011;701;52.526;13.408;2023-08-06T07:59:57;7.30;;;4.15;;
1412;SDS011;701;52.526;13.408;2023-08-06T08:02:22;9.38;;;5.25;;
1412;SDS011;701;52.526;13.408;2023-08-06T08:04:48;8.33;;;4.57;;
1412;SDS011;701;52.526;13.408;2023-08-06T08:07:14;8.05;;;4.40;;
1412;SDS011;701;52.526;13.408;2023-08-06T08:09:41;7.30;;;4.20;;
1412;SDS011;701;52.526;13.408;2023-08-06T08:12:07;7.07;;;4.50;;
1412;SDS011;701;52.526;13.408;2023-08-06T08:14:32;7.70;;;4.50;;
1412;SDS011;701;52.526;13.408;2023-08-06T08:17:04;8.63;;;4.63;;
1412;SDS011;701;52.526;13.408;2023-08-06T08:19:31;8.45;;;4.63;;
1412;SDS011;701;52.526;13.408;2023-08-06T08:21:59;8.15;;;4.80;;
1412;SDS011;701;52.526;13.408;2023-08-06T08:24:26;7.87;;;4.43;;
1412;SDS011;701;52.526;13.408;2023-08-06T08:26:52;11.13;;;5.88;;
1412;SDS011;701;52.526;13.408;2023-08-06T08:29:21;9.75;;;5.07;;
1412;SDS011;701;52.526;13.408;2023-08-06T08:31:47;8.43;;;5.38;;
1412;SDS011;701;52.526;13.408;2023-08-06T08:34:15;8.60;;;5.38;;
1412;SDS011;701;52.526;13.408;2023-08-06T08:36:41;8.60;;;5.07;;
1412;SDS011;701;52.526;13.408;2023-08-06T08:39:07;9.45;;;5.97;;
1412;SDS011;701;52.526;13.408;2023-08-06T08:41:33;9.05;;;5.95;;
1412;SDS011;701;52.526;13.408;2023-08-06T08:44:01;10.77;;;6.05;;
1412;SDS011;701;52.526;13.408;2023-08-06T08:46:29;8.83;;;5.83;;
1412;SDS011;701;52.526;13.408;2023-08-06T08:48:57;11.07;;;6.25;;
1412;SDS011;701;52.526;13.408;2023-08-06T08:51:25;9.98;;;6.05;;
1412;SDS011;701;52.526;13.408;2023-08-06T08:53:52;11.25;;;7.00;;
1412;SDS011;701;52.526;13.408;2023-08-06T08:56:21;11.63;;;6.30;;
1412;SDS011;701;52.526;13.408;2023-08-06T08:58:47;9.83;;;6.10;;
1412;SDS011;701;52.526;13.408;2023-08-06T09:01:13;9.77;;;6.15;;
1412;SDS011;701;52.526;13.408;2023-08-06T09:03:40;8.60;;;5.78;;
1412;SDS011;701;52.526;13.408;2023-08-06T09:06:08;8.77;;;6.13;;
1412;SDS011;701;52.526;13.408;2023-08-06T09:08:37;9.05;;;6.10;;
1412;SDS011;701;52.526;13.408;2023-08-06T09:11:08;10.43;;;6.15;;
1412;SDS011;701;52.526;13.408;2023-08-06T09:13:36;9.82;;;6.13;;
1412;SDS011;701;52.526;13.408;2023-08-06T09:16:02;11.13;;;5.97;;
1412;SDS011;701;52.526;13.408;2023-08-06T09:18:31;11.37;;;6.10;;
1412;SDS011;701;52.526;13.408;2023-08-06T09:20:57;9.95;;;6.05;;
1412;SDS011;701;52.526;13.408;2023-08-06T09:23:32;9.05;;;6.40;;
1412;SDS011;701;52.526;13.408;2023-08-06T09:25:58;11.43;;;6.28;;
1412;SDS011;701;52.526;13.408;2023-08-06T09:28:36;9.77;;;5.73;;
1412;SDS011;701;52.526;13.408;2023-08-06T09:31:07;13.63;;;6.40;;
1412;SDS011;701;52.526;13.408;2023-08-06T09:33:35;9.50;;;6.40;;
1412;SDS011;701;52.526;13.408;2023-08-06T09:36:08;9.73;;;6.20;;
1412;SDS011;701;52.526;13.408;2023-08-06T09:38:39;8.63;;;6.03;;
1412;SDS011;701;52.526;13.408;2023-08-06T09:41:05;9.23;;;5.90;;
1412;SDS011;701;52.526;13.408;2023-08-06T09:43:39;10.48;;;6.95;;
1412;SDS011;701;52.526;13.408;2023-08-06T09:46:11;10.35;;;6.30;;
1412;SDS011;701;52.526;13.408;2023-08-06T09:48:38;10.07;;;6.47;;
1412;SDS011;701;52.526;13.408;2023-08-06T09:51:04;10.57;;;6.30;;
1412;SDS011;701;52.526;13.408;2023-08-06T09:53:33;9.90;;;6.47;;
1412;SDS011;701;52.526;13.408;2023-08-06T09:56:01;10.75;;;6.25;;
1412;SDS011;701;52.526;13.408;2023-08-06T09:58:26;10.68;;;6.55;;
1412;SDS011;701;52.526;13.408;2023-08-06T10:00:54;9.53;;;5.90;;
1412;SDS011;701;52.526;13.408;2023-08-06T10:03:20;9.95;;;6.43;;
1412;SDS011;701;52.526;13.408;2023-08-06T10:05:47;11.63;;;6.68;;
1412;SDS011;701;52.526;13.408;2023-08-06T10:08:13;10.70;;;6.40;;
1412;SDS011;701;52.526;13.408;2023-08-06T10:10:39;10.80;;;6.85;;
1412;SDS011;701;52.526;13.408;2023-08-06T10:13:05;10.93;;;7.03;;
1412;SDS011;701;52.526;13.408;2023-08-06T10:15:32;10.30;;;6.68;;
1412;SDS011;701;52.526;13.408;2023-08-06T10:17:59;10.02;;;6.20;;
1412;SDS011;701;52.526;13.408;2023-08-06T10:20:26;9.40;;;4.70;;
1412;SDS011;701;52.526;13.408;2023-08-06T10:23:04;7.53;;;4.50;;
1412;SDS011;701;52.526;13.408;2023-08-06T10:25:40;8.80;;;4.00;;
1412;SDS011;701;52.526;13.408;2023-08-06T10:28:08;7.65;;;3.50;;
1412;SDS011;701;52.526;13.408;2023-08-06T10:30:40;7.68;;;4.15;;
1412;SDS011;701;52.526;13.408;2023-08-06T10:33:10;8.83;;;4.80;;
1412;SDS011;701;52.526;13.408;2023-08-06T10:35:36;6.20;;;3.70;;
1412;SDS011;701;52.526;13.408;2023-08-06T10:38:03;7.20;;;3.50;;
1412;SDS011;701;52.526;13.408;2023-08-06T10:40:29;6.80;;;3.75;;
1412;SDS011;701;52.526;13.408;2023-08-06T10:42:58;6.40;;;3.03;;
1412;SDS011;701;52.526;13.408;2023-08-06T10:45:25;6.65;;;3.50;;
1412;SDS011;701;52.526;13.408;2023-08-06T10:47:54;6.85;;;3.33;;
1412;SDS011;701;52.526;13.408;2023-08-06T10:50:23;5.80;;;3.17;;
1412;SDS011;701;52.526;13.408;2023-08-06T10:52:49;6.68;;;3.20;;
1412;SDS011;701;52.526;13.408;2023-08-06T10:55:49;6.50;;;3.60;;
1412;SDS011;701;52.526;13.408;2023-08-06T10:58:08;7.55;;;3.50;;
1412;SDS011;701;52.526;13.408;2023-08-06T11:00:33;7.00;;;3.63;;
1412;SDS011;701;52.526;13.408;2023-08-06T11:03:00;7.80;;;4.60;;
1412;SDS011;701;52.526;13.408;2023-08-06T11:05:25;9.30;;;4.57;;
1412;SDS011;701;52.526;13.408;2023-08-06T11:07:51;7.63;;;4.40;;
1412;SDS011;701;52.526;13.408;2023-08-06T11:10:17;6.80;;;3.60;;
1412;SDS011;701;52.526;13.408;2023-08-06T11:12:43;7.75;;;3.88;;
1412;SDS011;701;52.526;13.408;2023-08-06T11:15:09;7.97;;;4.00;;
1412;SDS011;701;52.526;13.408;2023-08-06T11:17:36;6.70;;;4.07;;
1412;SDS011;701;52.526;13.408;2023-08-06T11:20:04;7.93;;;4.03;;
1412;SDS011;701;52.526;13.408;2023-08-06T11:22:30;8.15;;;3.97;;
1412;SDS011;701;52.526;13.408;2023-08-06T11:24:56;7.53;;;4.43;;
1412;SDS011;701;52.526;13.408;2023-08-06T11:27:23;7.80;;;4.32;;
1412;SDS011;701;52.526;13.408;2023-08-06T11:29:51;9.53;;;5.57;;
1412;SDS011;701;52.526;13.408;2023-08-06T11:32:17;8.10;;;4.30;;
1412;SDS011;701;52.526;13.408;2023-08-06T11:34:43;7.38;;;4.43;;
1412;SDS011;701;52.526;13.408;2023-08-06T11:37:09;7.63;;;4.28;;
1412;SDS011;701;52.526;13.408;2023-08-06T11:39:36;7.47;;;3.80;;
1412;SDS011;701;52.526;13.408;2023-08-06T11:42:04;9.63;;;4.27;;
1412;SDS011;701;52.526;13.408;2023-08-06T11:44:36;7.93;;;3.88;;
1412;SDS011;701;52.526;13.408;2023-08-06T11:47:02;7.00;;;4.03;;
1412;SDS011;701;52.526;13.408;2023-08-06T11:52:21;8.02;;;3.97;;
1412;SDS011;701;52.526;13.408;2023-08-06T11:55:02;6.50;;;3.70;;
1412;SDS011;701;52.526;13.408;2023-08-06T11:57:33;7.95;;;4.32;;
1412;SDS011;701;52.526;13.408;2023-08-06T12:00:03;6.88;;;3.92;;
1412;SDS011;701;52.526;13.408;2023-08-06T12:02:40;6.72;;;4.07;;
1412;SDS011;701;52.526;13.408;2023-08-06T12:07:37;7.93;;;4.37;;
1412;SDS011;701;52.526;13.408;2023-08-06T12:10:07;7.53;;;4.30;;
1412;SDS011;701;52.526;13.408;2023-08-06T12:12:33;6.70;;;3.88;;
1412;SDS011;701;52.526;13.408;2023-08-06T12:15:00;9.15;;;4.78;;
1412;SDS011;701;52.526;13.408;2023-08-06T12:17:26;8.88;;;4.97;;
1412;SDS011;701;52.526;13.408;2023-08-06T12:19:52;9.13;;;4.73;;
1412;SDS011;701;52.526;13.408;2023-08-06T12:22:18;8.45;;;4.90;;
1412;SDS011;701;52.526;13.408;2023-08-06T12:24:44;7.97;;;4.75;;
1412;SDS011;701;52.526;13.408;2023-08-06T12:27:11;8.00;;;4.77;;
1412;SDS011;701;52.526;13.408;2023-08-06T12:29:41;9.73;;;5.00;;
1412;SDS011;701;52.526;13.408;2023-08-06T12:32:08;8.65;;;5.18;;
1412;SDS011;701;52.526;13.408;2023-08-06T12:34:40;8.50;;;4.75;;
1412;SDS011;701;52.526;13.408;2023-08-06T12:37:07;9.23;;;5.05;;
1412;SDS011;701;52.526;13.408;2023-08-06T12:39:34;8.23;;;5.10;;
1412;SDS011;701;52.526;13.408;2023-08-06T12:42:03;9.43;;;5.30;;
1412;SDS011;701;52.526;13.408;2023-08-06T12:44:30;10.15;;;5.75;;
1412;SDS011;701;52.526;13.408;2023-08-06T12:46:57;9.20;;;5.40;;
1412;SDS011;701;52.526;13.408;2023-08-06T12:49:23;10.40;;;5.82;;
1412;SDS011;701;52.526;13.408;2023-08-06T12:51:51;9.17;;;5.60;;
1412;SDS011;701;52.526;13.408;2023-08-06T12:54:18;9.45;;;4.90;;
1412;SDS011;701;52.526;13.408;2023-08-06T12:56:47;8.52;;;5.13;;
1412;SDS011;701;52.526;13.408;2023-08-06T12:59:14;8.15;;;5.32;;
1412;SDS011;701;52.526;13.408;2023-08-06T13:01:41;8.60;;;5.10;;
1412;SDS011;701;52.526;13.408;2023-08-06T13:04:07;9.07;;;5.37;;
1412;SDS011;701;52.526;13.408;2023-08-06T13:06:33;8.38;;;5.20;;
1412;SDS011;701;52.526;13.408;2023-08-06T13:09:02;11.48;;;5.57;;
1412;SDS011;701;52.526;13.408;2023-08-06T13:11:29;8.77;;;5.38;;
1412;SDS011;701;52.526;13.408;2023-08-06T13:14:14;11.27;;;6.22;;
1412;SDS011;701;52.526;13.408;2023-08-06T13:16:40;9.20;;;5.13;;
1412;SDS011;701;52.526;13.408;2023-08-06T13:19:08;10.88;;;5.65;;
1412;SDS011;701;52.526;13.408;2023-08-06T13:24:06;9.98;;;5.97;;
1412;SDS011;701;52.526;13.408;2023-08-06T13:26:35;10.23;;;6.20;;
1412;SDS011;701;52.526;13.408;2023-08-06T13:29:01;10.50;;;6.23;;
1412;SDS011;701;52.526;13.408;2023-08-06T13:31:27;11.05;;;6.40;;
1412;SDS011;701;52.526;13.408;2023-08-06T13:33:54;11.88;;;6.70;;
1412;SDS011;701;52.526;13.408;2023-08-06T13:36:21;11.52;;;6.63;;
1412;SDS011;701;52.526;13.408;2023-08-06T13:38:47;11.68;;;6.50;;
1412;SDS011;701;52.526;13.408;2023-08-06T13:41:13;13.67;;;6.53;;
1412;SDS011;701;52.526;13.408;2023-08-06T13:43:39;10.48;;;5.93;;
1412;SDS011;701;52.526;13.408;2023-08-06T13:46:05;9.25;;;5.90;;
1412;SDS011;701;52.526;13.408;2023-08-06T13:48:31;10.03;;;6.10;;
1412;SDS011;701;52.526;13.408;2023-08-06T13:50:57;9.88;;;6.38;;
1412;SDS011;701;52.526;13.408;2023-08-06T13:53:23;16.08;;;9.05;;
1412;SDS011;701;52.526;13.408;2023-08-06T13:55:50;11.13;;;6.73;;
1412;SDS011;701;52.526;13.408;2023-08-06T13:58:16;10.68;;;6.18;;
1412;SDS011;701;52.526;13.408;2023-08-06T14:00:41;12.10;;;6.63;;
1412;SDS011;701;52.526;13.408;2023-08-06T14:03:07;10.65;;;6.10;;
1412;SDS011;701;52.526;13.408;2023-08-06T14:05:34;9.65;;;5.57;;
1412;SDS011;701;52.526;13.408;2023-08-06T14:07:59;8.43;;;4.30;;
1412;SDS011;701;52.526;13.408;2023-08-06T14:10:25;7.72;;;4.05;;
1412;SDS011;701;52.526;13.408;2023-08-06T14:12:51;8.23;;;4.13;;
1412;SDS011;701;52.526;13.408;2023-08-06T14:15:17;8.38;;;3.97;;
1412;SDS011;701;52.526;13.408;2023-08-06T14:17:42;7.37;;;3.87;;
1412;SDS011;701;52.526;13.408;2023-08-06T14:20:08;9.20;;;4.05;;
1412;SDS011;701;52.526;13.408;2023-08-06T14:22:37;7.45;;;3.67;;
1412;SDS011;701;52.526;13.408;2023-08-06T14:25:03;7.25;;;3.63;;
1412;SDS011;701;52.526;13.408;2023-08-06T14:27:29;7.27;;;3.33;;
1412;SDS011;701;52.526;13.408;2023-08-06T14:29:55;7.53;;;3.72;;
1412;SDS011;701;52.526;13.408;2023-08-06T14:32:21;7.63;;;3.60;;
1412;SDS011;701;52.526;13.408;2023-08-06T14:34:46;8.18;;;3.60;;
1412;SDS011;701;52.526;13.408;2023-08-06T14:37:12;7.00;;;3.60;;
1412;SDS011;701;52.526;13.408;2023-08-06T14:39:38;9.17;;;3.40;;
1412;SDS011;701;52.526;13.408;2023-08-06T14:42:04;8.20;;;3.10;;
1412;SDS011;701;52.526;13.408;2023-08-06T14:44:30;6.40;;;3.17;;
1412;SDS011;701;52.526;13.408;2023-08-06T14:46:56;6.45;;;3.45;;
1412;SDS011;701;52.526;13.408;2023-08-06T14:49:22;7.22;;;3.38;;
1412;SDS011;701;52.526;13.408;2023-08-06T14:51:48;8.65;;;3.35;;
1412;SDS011;701;52.526;13.408;2023-08-06T14:54:14;6.43;;;2.80;;
1412;SDS011;701;52.526;13.408;2023-08-06T14:56:40;8.93;;;3.20;;
1412;SDS011;701;52.526;13.408;2023-08-06T14:59:06;8.27;;;3.40;;
1412;SDS011;701;52.526;13.408;2023-08-06T15:01:32;7.07;;;3.30;;
1412;SDS011;701;52.526;13.408;2023-08-06T15:03:58;6.53;;;3.05;;
1412;SDS011;701;52.526;13.408;2023-08-06T15:06:24;6.22;;;3.03;;
1412;SDS011;701;52.526;13.408;2023-08-06T15:08:50;5.67;;;2.57;;
1412;SDS011;701;52.526;13.408;2023-08-06T15:11:15;6.72;;;2.72;;
1412;SDS011;701;52.526;13.408;2023-08-06T15:13:41;7.63;;;2.47;;
1412;SDS011;701;52.526;13.408;2023-08-06T15:16:07;7.83;;;2.80;;
1412;SDS011;701;52.526;13.408;2023-08-06T15:18:33;6.50;;;2.60;;
1412;SDS011;701;52.526;13.408;2023-08-06T15:20:59;7.23;;;2.47;;
1412;SDS011;701;52.526;13.408;2023-08-06T15:23:24;5.85;;;2.53;;
1412;SDS011;701;52.526;13.408;2023-08-06T15:25:50;5.93;;;2.40;;